Susan Miller — WDC6990 — position and weather

sailwx.info

Track history (hours):
 
Tides and Currents Weather Stations Pressure Air Temp Water Temp Dewpoint Dewpoint Depression Visibility Wind Speed Wind Dir Waves Ship Positions

Susan Miller

Owner: Miller's Tug & Barge, Staten Island, NY. More information available from US FCC via Universal Licensing System and Coast Guard Vessel Documentation Center.

Last reported at 2018-Jul-19 12:56 UTC. Time now 2018-Jul-19 13:06 UTC.
Position N 40°38' W 074°04'.

Length 20 m; draft 3 m.

Type: Tug. MMSI: 367064470.

Date/timePositionNaut miles runAvg speedWind from/ knotsBaromVisibWave heightAir tempDewpointWater temp
2018-Jul-19 12:56N 40°38' W 074°04'1 2.2
2018-Jul-19 12:26N 40°37' W 074°04'1 2.6
2018-Jul-19 12:00N 40°38' W 074°04'0 0.0
2018-Jul-18 21:39N 40°38' W 074°04'2 4.6
2018-Jul-18 21:15N 40°37' W 074°03'1 4.2
2018-Jul-18 20:58N 40°38' W 074°04'1 1.8
2018-Jul-18 20:30N 40°37' W 074°03'1 1.8
2018-Jul-18 19:59N 40°38' W 074°04'0 0.6
2018-Jul-18 19:28N 40°38' W 074°04'0 0.9
2018-Jul-18 19:00N 40°38' W 074°04'0 0.3
2018-Jul-18 18:30N 40°38' W 074°04'0 0.0
2018-Jul-17 22:15N 40°38' W 074°04'2 6.4
2018-Jul-17 21:57N 40°36' W 074°03'1 1.9
2018-Jul-17 21:30N 40°37' W 074°04'1 2.2
2018-Jul-17 21:00N 40°38' W 074°04'2 2.6
2018-Jul-17 20:21N 40°37' W 074°03'1 2.8
2018-Jul-17 20:00N 40°38' W 074°04'1 1.3
2018-Jul-17 19:30N 40°38' W 074°04'2 3.7
2018-Jul-17 18:51N 40°36' W 074°03'1 1.7
2018-Jul-17 18:25N 40°37' W 074°03'0 0.2
2018-Jul-17 18:00N 40°37' W 074°03'2 0.1
2018-Jul-16 19:25N 40°38' W 074°04'0 1.1
2018-Jul-16 19:00N 40°38' W 074°04'  
2018-Jul-13 19:25N 40°38' W 074°04'0 0.0
2018-Jul-13 19:00N 40°38' W 074°04'0 0.0
2018-Jul-11 17:52N 40°38' W 074°04'3 0.7
2018-Jul-11 14:00N 40°36' W 074°03'3 0.1
2018-Jul-10 19:37N 40°38' W 074°04'0 0.0
2018-Jul-10 18:29N 40°38' W 074°04'2 4.5
2018-Jul-10 18:00N 40°40' W 074°04'1 1.3
2018-Jul-10 17:30N 40°41' W 074°05'2 3.5
2018-Jul-10 17:00N 40°41' W 074°02'4 7.4
2018-Jul-10 16:30N 40°45' W 074°01'0 0.1
2018-Jul-10 16:00N 40°45' W 074°01'0 0.1
2018-Jul-10 15:29N 40°45' W 074°01'0 0.2
2018-Jul-10 14:58N 40°44' W 074°01'2 3.7
2018-Jul-10 14:30N 40°43' W 074°01'2 4.4
2018-Jul-10 13:59N 40°41' W 074°03'1 2.5
2018-Jul-10 13:29N 40°41' W 074°04'0 0.0
2018-Jul-10 13:00N 40°41' W 074°04'0 0.0
2018-Jul-10 12:30N 40°41' W 074°05'2 4.5
2018-Jul-10 12:00N 40°38' W 074°04'  
Track history (hours):
 
Tides and Currents Weather Stations Pressure Air Temp Water Temp Dewpoint Dewpoint Depression Visibility Wind Speed Wind Dir Waves Ship Positions

Susan Miller

Owner: Miller's Tug & Barge, Staten Island, NY. More information available from US FCC via Universal Licensing System and Coast Guard Vessel Documentation Center.

Last reported at 2018-Jul-19 12:56 UTC. Time now 2018-Jul-19 13:06 UTC.
Position N 40°38' W 074°04'.

Length 20 m; draft 3 m.

Type: Tug. MMSI: 367064470.

Date/timePositionNaut miles runAvg speedWind from/ knotsBaromVisibWave heightAir tempDewpointWater temp
2018-Jul-19 12:56N 40°38' W 074°04'1 2.2
2018-Jul-19 12:26N 40°37' W 074°04'1 2.6
2018-Jul-19 12:00N 40°38' W 074°04'0 0.0
2018-Jul-18 21:39N 40°38' W 074°04'2 4.6
2018-Jul-18 21:15N 40°37' W 074°03'1 4.2
2018-Jul-18 20:58N 40°38' W 074°04'1 1.8
2018-Jul-18 20:30N 40°37' W 074°03'1 1.8
2018-Jul-18 19:59N 40°38' W 074°04'0 0.6
2018-Jul-18 19:28N 40°38' W 074°04'0 0.9
2018-Jul-18 19:00N 40°38' W 074°04'0 0.3
2018-Jul-18 18:30N 40°38' W 074°04'0 0.0
2018-Jul-17 22:15N 40°38' W 074°04'2 6.4
2018-Jul-17 21:57N 40°36' W 074°03'1 1.9
2018-Jul-17 21:30N 40°37' W 074°04'1 2.2
2018-Jul-17 21:00N 40°38' W 074°04'2 2.6
2018-Jul-17 20:21N 40°37' W 074°03'1 2.8
2018-Jul-17 20:00N 40°38' W 074°04'1 1.3
2018-Jul-17 19:30N 40°38' W 074°04'2 3.7
2018-Jul-17 18:51N 40°36' W 074°03'1 1.7
2018-Jul-17 18:25N 40°37' W 074°03'0 0.2
2018-Jul-17 18:00N 40°37' W 074°03'2 0.1
2018-Jul-16 19:25N 40°38' W 074°04'0 1.1
2018-Jul-16 19:00N 40°38' W 074°04'  
2018-Jul-13 19:25N 40°38' W 074°04'0 0.0
2018-Jul-13 19:00N 40°38' W 074°04'0 0.0
2018-Jul-11 17:52N 40°38' W 074°04'3 0.7
2018-Jul-11 14:00N 40°36' W 074°03'3 0.1
2018-Jul-10 19:37N 40°38' W 074°04'0 0.0
2018-Jul-10 18:29N 40°38' W 074°04'2 4.5
2018-Jul-10 18:00N 40°40' W 074°04'1 1.3
2018-Jul-10 17:30N 40°41' W 074°05'2 3.5
2018-Jul-10 17:00N 40°41' W 074°02'4 7.4
2018-Jul-10 16:30N 40°45' W 074°01'0 0.1
2018-Jul-10 16:00N 40°45' W 074°01'0 0.1
2018-Jul-10 15:29N 40°45' W 074°01'0 0.2
2018-Jul-10 14:58N 40°44' W 074°01'2 3.7
2018-Jul-10 14:30N 40°43' W 074°01'2 4.4
2018-Jul-10 13:59N 40°41' W 074°03'1 2.5
2018-Jul-10 13:29N 40°41' W 074°04'0 0.0
2018-Jul-10 13:00N 40°41' W 074°04'0 0.0
2018-Jul-10 12:30N 40°41' W 074°05'2 4.5
2018-Jul-10 12:00N 40°38' W 074°04'  

Dump ship's entire track history